Latest Weather Observations for Yarram Airport

IDV60801

Issued at 10:02 pm EST Saturday 25 April 2015 (issued every 30 minutes, with the page automatically refreshed every 10 minutes)

About weather observations | Map of weather stations | Latest weather observations for VIC | Other Formats
Station Details ID: 085151 Name: YARRAM AIRPORT Lat: -38.56 Lon: 146.75 Height: 17.9 m
Data from the previous 72 hours. | See also: Recent months at Yarram Airport
Date/Time
EST
Temp
°C
App
Temp
°C
Dew
Point
Rel
Hum
%
Delta-T
°C
Wind Press
QNH
hPa
Press
MSL
hPa
Rain
since 9 am
mm
Dir
 
Spd
km/h
Gust
km/h
Spd
kts
Gust
kts
25/10:00pm 11.5 10.1 10.9 96 0.3 W 9 11 5 6 1011.1 1011.1 0.4
25/09:30pm 11.9 10.2 11.3 96 0.3 WNW 11 13 6 7 1010.8 1010.8 0.4
25/09:00pm 11.9 10.2 11.3 96 0.3 WNW 11 11 6 6 1010.7 1010.7 0.4
25/08:30pm 12.6 10.7 11.8 95 0.4 W 13 17 7 9 1010.7 1010.7 0.4
25/08:00pm 12.6 10.8 12.1 97 0.3 W 13 17 7 9 1010.5 1010.5 0.4
25/07:30pm 11.6 10.7 10.8 95 0.4 WNW 6 7 3 4 1010.2 1010.2 0.4
25/07:00pm 12.9 11.8 12.1 95 0.4 WSW 9 13 5 7 1009.9 1009.9 0.4
25/06:30pm 13.9 12.6 12.6 92 0.7 WSW 11 15 6 8 1009.6 1009.6 0.4
25/06:00pm 14.9 12.7 13.3 90 0.9 SW 17 24 9 13 1009.3 1009.3 0.4
25/05:30pm 15.1 14.5 13.6 91 0.8 SW 9 11 5 6 1009.0 1009.0 0.4
25/05:00pm 15.5 14.8 13.3 87 1.2 W 9 11 5 6 1008.5 1008.5 0.4
25/04:30pm 15.7 14.3 13.4 86 1.3 W 13 15 7 8 1008.3 1008.3 0.4
25/04:00pm 15.8 14.8 13.3 85 1.4 WNW 11 13 6 7 1008.2 1008.2 0.4
25/03:30pm 15.7 14.3 13.4 86 1.3 WSW 13 17 7 9 1008.1 1008.1 0.4
25/03:00pm 15.7 13.3 12.8 83 1.6 WSW 17 20 9 11 1008.1 1008.1 0.4
25/02:30pm 16.1 13.7 12.8 81 1.8 SW 17 22 9 12 1007.7 1007.7 0.4
25/02:00pm 16.5 14.7 13.4 82 1.7 SW 15 20 8 11 1007.6 1007.6 0.4
25/01:30pm 16.3 15.2 13.2 82 1.7 WSW 11 15 6 8 1007.7 1007.7 0.4
25/01:00pm 15.5 15.3 13.5 88 1.1 WNW 7 11 4 6 1007.7 1007.7 0.4
25/12:30pm 14.8 13.7 13.0 89 1.0 NW 11 15 6 8 1007.8 1007.8 0.2
25/12:00pm 15.8 14.8 12.2 79 2.0 W 9 13 5 7 1008.0 1008.0 0.0
25/11:30am 15.8 14.0 12.2 79 2.0 WNW 13 15 7 8 1008.1 1008.1 0.0
25/11:00am 16.5 14.1 12.8 79 2.1 W 17 20 9 11 1008.0 1008.0 0.0
25/10:30am 16.2 14.5 12.4 78 2.1 W 13 17 7 9 1007.9 1007.9 0.0
25/10:00am 16.3 15.2 13.2 82 1.7 W 11 15 6 8 1007.9 1007.9 0.0
25/09:30am 14.3 15.1 12.5 89 1.0 CALM 0 0 0 0 1007.8 1007.8 0.0
25/09:00am 13.7 14.8 13.5 99 0.1 CALM 0 0 0 0 1007.7 1007.7 0.0
25/08:30am 12.3 13.0 12.3 100 0.0 CALM 0 0 0 0 1007.5 1007.5 0.0
25/08:00am 11.6 10.4 11.6 100 0.0 N 9 11 5 6 1007.2 1007.2 0.0
25/07:30am 10.5 10.6 10.3 99 0.1 CALM 0 0 0 0 1007.0 1007.0 0.0
25/07:00am 10.6 9.4 10.4 99 0.1 WNW 7 11 4 6 1006.6 1006.6 0.0
25/06:30am 10.8 9.3 10.6 99 0.1 WSW 9 9 5 5 1006.4 1006.4 0.0
25/06:00am 11.2 11.1 10.7 97 0.3 N 2 7 1 4 1006.1 1006.1 0.0
25/05:30am 11.7 10.4 11.4 98 0.2 WNW 9 11 5 6 1005.9 1005.9 0.0
25/05:00am 11.6 10.8 11.1 97 0.3 W 6 9 3 5 1005.5 1005.5 0.0
25/04:30am 12.0 11.7 11.4 96 0.3 SW 4 9 2 5 1005.4 1005.4 0.0
25/04:00am 12.6 12.0 11.8 95 0.4 NNW 6 9 3 5 1005.4 1005.4 0.0
25/03:30am 12.6 11.5 12.0 96 0.3 WSW 9 11 5 6 1005.3 1005.3 0.0
25/03:00am 12.2 11.0 11.7 97 0.3 W 9 11 5 6 1005.6 1005.6 0.0
25/02:30am 12.4 11.3 11.8 96 0.3 W 9 11 5 6 1005.6 1005.6 0.0
25/02:00am 12.5 11.8 11.9 96 0.3 W 7 9 4 5 1005.7 1005.7 0.0
25/01:30am 12.6 12.1 12.0 96 0.3 WNW 6 7 3 4 1005.4 1005.4 0.0
25/01:00am 12.8 11.4 12.3 97 0.3 NW 11 13 6 7 1005.3 1005.3 0.0
25/12:30am 13.2 11.5 12.6 96 0.3 WNW 13 15 7 8 1005.3 1005.3 0.0
25/12:00am 13.5 12.6 12.6 94 0.5 WNW 9 11 5 6 1005.3 1005.3 0.0
 
Date/Time
EST
Temp
°C
App
Temp
°C
Dew
Point
Rel
Hum
%
Delta-T
°C
Wind Press
QNH
hPa
Press
MSL
hPa
Rain
since 9 am
mm
Dir
 
Spd
km/h
Gust
km/h
Spd
kts
Gust
kts
24/11:30pm 14.0 13.5 12.7 92 0.7 WNW 7 9 4 5 1005.2 1005.2 0.0
24/11:00pm 14.2 13.3 12.6 90 0.9 WNW 9 11 5 6 1005.2 1005.2 0.0
24/10:30pm 14.1 12.4 12.5 90 0.9 WNW 13 13 7 7 1005.2 1005.2 0.0
24/10:00pm 14.3 12.7 12.7 90 0.9 WNW 13 17 7 9 1005.1 1005.1 0.0
24/09:30pm 14.2 12.3 12.9 92 0.7 WNW 15 17 8 9 1004.9 1004.9 0.0
24/09:00pm 14.4 13.2 12.8 90 0.9 NW 11 15 6 8 1004.8 1004.8 0.0
24/08:30pm 14.8 14.0 13.0 89 1.0 W 9 11 5 6 1004.7 1004.7 0.0
24/08:00pm 14.7 14.0 13.1 90 0.9 W 9 13 5 7 1004.5 1004.5 0.0
24/07:30pm 15.0 13.9 13.0 88 1.1 W 11 13 6 7 1004.3 1004.3 0.0
24/07:00pm 15.5 14.0 13.0 85 1.4 W 13 15 7 8 1004.1 1004.1 0.0
24/06:30pm 15.7 14.6 13.0 84 1.5 W 11 15 6 8 1003.7 1003.7 0.0
24/06:00pm 16.3 14.8 13.2 82 1.7 W 13 15 7 8 1003.2 1003.2 0.0
24/05:30pm 16.9 14.7 13.4 80 2.0 W 17 20 9 11 1002.9 1002.9 0.0
24/05:00pm 17.9 16.5 13.4 75 2.6 WSW 13 17 7 9 1002.5 1002.5 0.0
24/04:30pm 18.7 16.8 14.2 75 2.6 WSW 17 20 9 11 1002.4 1002.4 0.0
24/04:00pm 18.7 17.5 14.0 74 2.7 WSW 13 20 7 11 1002.2 1002.2 0.0
24/03:30pm 18.8 16.9 14.3 75 2.6 WSW 17 20 9 11 1002.0 1002.0 0.0
24/03:00pm 19.4 18.4 14.6 74 2.8 WSW 13 15 7 8 1001.9 1001.9 0.0
24/02:30pm 20.3 18.7 14.9 71 3.2 WNW 17 24 9 13 1001.9 1001.9 0.0
24/02:00pm 19.8 18.7 14.2 70 3.3 WNW 13 19 7 10 1002.0 1002.0 0.0
24/01:30pm 19.8 19.9 15.4 76 2.6 NW 9 15 5 8 1002.1 1002.1 0.0
24/01:00pm 19.0 18.6 15.3 79 2.2 WNW 11 19 6 10 1002.4 1002.4 0.0
24/12:30pm 17.9 19.8 15.7 87 1.3 CALM 0 6 0 3 1002.8 1002.8 0.0
24/12:00pm 17.3 17.8 15.6 90 1.0 W 7 9 4 5 1003.3 1003.3 0.0
24/11:30am 17.0 17.1 16.5 97 0.3 WSW 11 15 6 8 1003.7 1003.7 0.0
24/11:00am 16.2 17.1 16.2 100 0.0 WNW 6 9 3 5 1004.0 1004.0 0.0
24/10:30am 15.8 17.3 15.8 100 0.0 NNW 2 7 1 4 1004.1 1004.1 0.0
24/10:00am 15.4 15.8 15.4 100 0.0 WNW 7 9 4 5 1004.2 1004.2 0.0
24/09:30am 15.4 16.0 15.4 100 0.0 WNW 6 7 3 4 1004.6 1004.6 0.0
24/09:00am 15.0 16.6 15.0 100 0.0 CALM 0 0 0 0 1004.7 1004.7 4.4
24/08:30am 14.7 16.2 14.7 100 0.0 CALM 0 0 0 0 1004.9 1004.9 3.8
24/08:00am 14.7 16.2 14.7 100 0.0 CALM 0 0 0 0 1004.9 1004.9 3.6
24/07:30am 14.5 15.6 14.5 100 0.0 WNW 2 6 1 3 1004.7 1004.7 3.4
24/07:00am 14.5 14.6 14.5 100 0.0 W 7 7 4 4 1004.7 1004.7 2.8
24/06:30am 14.1 15.4 14.1 100 0.0 CALM 0 0 0 0 1004.5 1004.5 2.8
24/06:00am 14.2 15.5 14.2 100 0.0 CALM 0 0 0 0 1004.7 1004.7 2.8
24/05:30am 14.1 15.4 14.1 100 0.0 CALM 0 0 0 0 1004.8 1004.8 2.6
24/05:00am 14.3 15.7 14.3 100 0.0 CALM 0 0 0 0 1004.8 1004.8 2.6
24/04:30am 14.5 15.9 14.5 100 0.0 CALM 0 0 0 0 1005.1 1005.1 2.6
24/04:00am 15.0 16.6 15.0 100 0.0 CALM 0 0 0 0 1005.2 1005.2 2.6
24/03:30am 15.3 15.9 15.3 100 0.0 NNW 6 7 3 4 1005.8 1005.8 2.6
24/03:00am 15.3 17.0 15.3 100 0.0 CALM 0 0 0 0 1006.0 1006.0 2.6
24/02:30am 15.4 17.2 15.4 100 0.0 CALM 0 0 0 0 1006.6 1006.6 2.6
24/02:00am 15.5 16.2 15.5 100 0.0 NE 6 7 3 4 1007.2 1007.2 2.4
24/01:30am 15.6 16.7 15.6 100 0.0 ENE 4 7 2 4 1007.8 1007.8 2.4
24/01:00am 15.4 17.2 15.4 100 0.0 CALM 0 0 0 0 1008.2 1008.2 2.2
24/12:30am 15.4 17.2 15.4 100 0.0 CALM 0 0 0 0 1008.8 1008.8 2.0
24/12:00am 15.4 17.2 15.4 100 0.0 CALM 0 0 0 0 1009.2 1009.2 1.8
 
Date/Time
EST
Temp
°C
App
Temp
°C
Dew
Point
Rel
Hum
%
Delta-T
°C
Wind Press
QNH
hPa
Press
MSL
hPa
Rain
since 9 am
mm
Dir
 
Spd
km/h
Gust
km/h
Spd
kts
Gust
kts
23/11:30pm 15.4 16.0 15.4 100 0.0 ENE 6 9 3 5 1009.6 1009.6 1.8
23/11:00pm 15.4 15.5 15.4 100 0.0 E 9 15 5 8 1010.0 1010.0 1.6
23/10:30pm 15.4 15.8 15.4 100 0.0 E 7 11 4 6 1010.6 1010.6 1.2
23/10:00pm 15.4 15.5 15.4 100 0.0 E 9 13 5 7 1011.1 1011.1 0.8
23/09:30pm 15.5 15.6 15.5 100 0.0 ESE 9 15 5 8 1011.5 1011.5 0.6
23/09:00pm 15.6 15.7 15.4 99 0.1 ESE 9 15 5 8 1011.9 1011.9 0.2
23/08:30pm 15.5 15.1 15.3 99 0.1 ESE 11 17 6 9 1012.2 1012.2 0.2
23/08:00pm 15.5 14.4 15.3 99 0.1 E 15 22 8 12 1012.3 1012.3 0.2
23/07:30pm 15.4 13.9 15.2 99 0.1 ESE 17 26 9 14 1012.4 1012.4 0.2
23/07:00pm 15.4 15.5 15.4 100 0.0 ESE 9 13 5 7 1012.9 1012.9 0.2
23/06:30pm 15.4 15.5 15.4 100 0.0 ESE 9 15 5 8 1013.2 1013.2 0.2
23/06:00pm 15.5 14.8 15.5 100 0.0 ESE 13 19 7 10 1013.1 1013.1 0.2
23/05:30pm 15.6 14.5 15.4 99 0.1 ESE 15 24 8 13 1013.2 1013.2 0.2
23/05:00pm 15.7 14.3 15.5 99 0.1 ESE 17 22 9 12 1013.3 1013.3 0.2
23/04:30pm 15.7 14.7 15.7 100 0.0 ESE 15 20 8 11 1013.4 1013.4 0.2
23/04:00pm 15.7 14.4 15.7 100 0.0 ESE 17 22 9 12 1013.6 1013.6 0.2
23/03:30pm 15.7 13.8 15.7 100 0.0 ESE 20 28 11 15 1013.9 1013.9 0.2
23/03:00pm 15.9 14.1 15.9 100 0.0 SE 20 24 11 13 1014.1 1014.1 0.2
23/02:30pm 16.0 14.1 15.8 99 0.1 SE 20 24 11 13 1014.6 1014.6 0.0
23/02:00pm 16.3 14.5 16.0 98 0.2 ESE 20 30 11 16 1014.8 1014.8 0.0
23/01:30pm 17.0 14.4 15.0 88 1.2 SE 22 28 12 15 1015.2 1015.2 0.0
23/01:00pm 17.0 14.8 15.0 88 1.2 ESE 20 26 11 14 1015.6 1015.6 0.0
23/12:30pm 16.8 14.6 15.0 89 1.0 SE 20 28 11 15 1016.2 1016.2 0.0
23/12:00pm 16.8 14.6 15.0 89 1.0 ESE 20 28 11 15 1017.0 1017.0 0.0
23/11:30am 16.5 13.4 14.5 88 1.1 SE 24 30 13 16 1017.7 1017.7 0.0
23/11:00am 16.7 14.0 14.7 88 1.1 ESE 22 33 12 18 1018.1 1018.1 0.0
23/10:30am 16.7 13.7 14.9 89 1.0 SE 24 30 13 16 1018.2 1018.2 0.0
23/10:00am 16.2 13.9 14.7 91 0.9 SE 20 28 11 15 1018.5 1018.5 0.0
23/09:30am 15.8 14.1 14.8 94 0.6 SE 17 22 9 12 1018.7 1018.7 0.0
23/09:00am 15.7 14.4 14.7 94 0.6 SE 15 19 8 10 1019.0 1019.0 6.4
23/08:30am 15.2 15.0 14.6 96 0.3 SSE 9 13 5 7 1019.2 1019.2 6.4
23/08:00am 14.8 14.1 14.2 96 0.3 SE 11 15 6 8 1019.3 1019.3 6.4
23/07:30am 14.7 13.9 14.1 96 0.3 ESE 11 19 6 10 1019.5 1019.5 6.2
23/07:00am 14.5 14.1 14.0 97 0.3 SE 9 15 5 8 1019.4 1019.4 6.0
23/06:30am 14.4 12.5 14.1 98 0.2 SSE 17 24 9 13 1019.3 1019.3 6.0
23/06:00am 14.7 12.8 14.1 96 0.3 SSE 17 24 9 13 1019.2 1019.2 6.0
23/05:30am 14.7 13.2 14.1 96 0.3 SSE 15 17 8 9 1019.3 1019.3 6.0
23/05:00am 14.6 13.4 14.1 97 0.3 SSE 13 17 7 9 1019.3 1019.3 6.0
23/04:30am 14.5 12.9 14.0 97 0.3 SSE 15 19 8 10 1019.2 1019.2 6.0
23/04:00am 14.5 13.0 14.3 99 0.1 SSE 15 19 8 10 1019.2 1019.2 6.0
23/03:30am 14.3 13.9 14.1 99 0.1 SE 9 13 5 7 1019.3 1019.3 6.0
23/03:00am 14.1 13.3 14.1 100 0.0 SSE 11 13 6 7 1019.6 1019.6 6.0
23/02:30am 14.0 12.0 14.0 100 0.0 SE 17 22 9 12 1020.2 1020.2 6.0
23/02:00am 14.1 12.2 14.1 100 0.0 SE 17 24 9 13 1020.5 1020.5 5.2
23/01:30am 14.3 12.8 14.1 99 0.1 SE 15 20 8 11 1020.8 1020.8 5.0
23/01:00am 14.4 14.0 14.2 99 0.1 SE 9 13 5 7 1020.9 1020.9 5.0
23/12:30am 14.4 13.3 14.4 100 0.0 SE 13 17 7 9 1021.1 1021.1 5.0
23/12:00am 13.4 11.9 13.2 99 0.1 SSE 13 15 7 8 1021.4 1021.4 5.0
 
Date/Time
EST
Temp
°C
App
Temp
°C
Dew
Point
Rel
Hum
%
Delta-T
°C
Wind Press
QNH
hPa
Press
MSL
hPa
Rain
since 9 am
mm
Dir
 
Spd
km/h
Gust
km/h
Spd
kts
Gust
kts
22/11:30pm 14.3 13.2 14.3 100 0.0 SSE 13 17 7 9 1021.7 1021.7 5.0
22/11:00pm 14.1 13.3 14.1 100 0.0 SSE 11 13 6 7 1022.2 1022.2 5.0
22/10:30pm 14.0 13.6 14.0 100 0.0 SE 9 13 5 7 1022.5 1022.5 5.0

Other Formats:

Comma delimited format used in spreadsheet applications
http://www.bom.gov.au/fwo/IDV60801/IDV60801.95890.axf

JavaScript Object Notation format (JSON) in row-major order
http://www.bom.gov.au/fwo/IDV60801/IDV60801.95890.json